sensor_id;sensor_type;location;lat;lon;timestamp;P1;durP1;ratioP1;P2;durP2;ratioP2
10461;SDS011;5278;42.656;23.374;2023-04-24T00:02:01;7.93;;;5.80;;
10461;SDS011;5278;42.656;23.374;2023-04-24T00:04:28;6.93;;;5.80;;
10461;SDS011;5278;42.656;23.374;2023-04-24T00:06:56;6.77;;;5.30;;
10461;SDS011;5278;42.656;23.374;2023-04-24T00:09:26;8.03;;;5.30;;
10461;SDS011;5278;42.656;23.374;2023-04-24T00:11:53;8.27;;;5.27;;
10461;SDS011;5278;42.656;23.374;2023-04-24T00:14:21;9.50;;;5.03;;
10461;SDS011;5278;42.656;23.374;2023-04-24T00:16:48;6.43;;;5.20;;
10461;SDS011;5278;42.656;23.374;2023-04-24T00:19:15;4.80;;;4.40;;
10461;SDS011;5278;42.656;23.374;2023-04-24T00:21:42;6.53;;;4.93;;
10461;SDS011;5278;42.656;23.374;2023-04-24T00:24:09;4.93;;;4.40;;
10461;SDS011;5278;42.656;23.374;2023-04-24T00:26:37;5.10;;;4.60;;
10461;SDS011;5278;42.656;23.374;2023-04-24T00:29:04;4.97;;;4.30;;
10461;SDS011;5278;42.656;23.374;2023-04-24T00:31:31;5.03;;;4.13;;
10461;SDS011;5278;42.656;23.374;2023-04-24T00:33:59;6.27;;;4.60;;
10461;SDS011;5278;42.656;23.374;2023-04-24T00:36:27;5.33;;;4.10;;
10461;SDS011;5278;42.656;23.374;2023-04-24T00:38:55;6.00;;;4.27;;
10461;SDS011;5278;42.656;23.374;2023-04-24T00:41:22;5.57;;;4.40;;
10461;SDS011;5278;42.656;23.374;2023-04-24T00:43:52;8.37;;;4.63;;
10461;SDS011;5278;42.656;23.374;2023-04-24T00:46:19;7.63;;;4.40;;
10461;SDS011;5278;42.656;23.374;2023-04-24T00:48:46;7.03;;;4.40;;
10461;SDS011;5278;42.656;23.374;2023-04-24T00:51:13;6.13;;;4.90;;
10461;SDS011;5278;42.656;23.374;2023-04-24T00:53:40;5.90;;;5.23;;
10461;SDS011;5278;42.656;23.374;2023-04-24T00:56:07;6.57;;;4.83;;
10461;SDS011;5278;42.656;23.374;2023-04-24T00:58:34;4.90;;;4.50;;
10461;SDS011;5278;42.656;23.374;2023-04-24T01:01:03;6.70;;;4.83;;
10461;SDS011;5278;42.656;23.374;2023-04-24T01:03:32;6.20;;;4.57;;
10461;SDS011;5278;42.656;23.374;2023-04-24T01:06:02;6.53;;;4.87;;
10461;SDS011;5278;42.656;23.374;2023-04-24T01:08:30;7.67;;;5.63;;
10461;SDS011;5278;42.656;23.374;2023-04-24T01:10:57;5.57;;;5.03;;
10461;SDS011;5278;42.656;23.374;2023-04-24T01:13:24;5.77;;;4.60;;
10461;SDS011;5278;42.656;23.374;2023-04-24T01:15:51;5.57;;;5.03;;
10461;SDS011;5278;42.656;23.374;2023-04-24T01:18:19;5.87;;;5.13;;
10461;SDS011;5278;42.656;23.374;2023-04-24T01:20:47;8.60;;;5.40;;
10461;SDS011;5278;42.656;23.374;2023-04-24T01:23:18;9.50;;;5.83;;
10461;SDS011;5278;42.656;23.374;2023-04-24T01:25:46;8.13;;;5.33;;
10461;SDS011;5278;42.656;23.374;2023-04-24T01:28:14;6.30;;;5.40;;
10461;SDS011;5278;42.656;23.374;2023-04-24T01:30:41;6.47;;;5.43;;
10461;SDS011;5278;42.656;23.374;2023-04-24T01:33:08;6.70;;;6.07;;
10461;SDS011;5278;42.656;23.374;2023-04-24T01:35:35;11.20;;;5.77;;
10461;SDS011;5278;42.656;23.374;2023-04-24T01:38:02;5.90;;;4.90;;
10461;SDS011;5278;42.656;23.374;2023-04-24T01:40:31;6.37;;;5.77;;
10461;SDS011;5278;42.656;23.374;2023-04-24T01:42:58;10.03;;;5.90;;
10461;SDS011;5278;42.656;23.374;2023-04-24T01:45:25;7.40;;;5.67;;
10461;SDS011;5278;42.656;23.374;2023-04-24T01:47:52;7.40;;;5.27;;
10461;SDS011;5278;42.656;23.374;2023-04-24T01:50:19;6.97;;;5.23;;
10461;SDS011;5278;42.656;23.374;2023-04-24T01:52:46;6.10;;;5.50;;
10461;SDS011;5278;42.656;23.374;2023-04-24T01:55:13;9.20;;;6.27;;
10461;SDS011;5278;42.656;23.374;2023-04-24T01:57:41;5.97;;;5.30;;
10461;SDS011;5278;42.656;23.374;2023-04-24T02:00:08;8.27;;;5.73;;
10461;SDS011;5278;42.656;23.374;2023-04-24T02:02:37;6.50;;;5.50;;
10461;SDS011;5278;42.656;23.374;2023-04-24T02:05:05;6.73;;;5.43;;
10461;SDS011;5278;42.656;23.374;2023-04-24T02:07:33;10.47;;;5.80;;
10461;SDS011;5278;42.656;23.374;2023-04-24T02:10:00;7.47;;;5.70;;
10461;SDS011;5278;42.656;23.374;2023-04-24T02:12:27;5.50;;;5.00;;
10461;SDS011;5278;42.656;23.374;2023-04-24T02:14:55;8.67;;;5.63;;
10461;SDS011;5278;42.656;23.374;2023-04-24T02:17:22;6.97;;;5.70;;
10461;SDS011;5278;42.656;23.374;2023-04-24T02:19:49;6.20;;;5.03;;
10461;SDS011;5278;42.656;23.374;2023-04-24T02:22:15;7.43;;;5.70;;
10461;SDS011;5278;42.656;23.374;2023-04-24T02:24:42;5.77;;;5.10;;
10461;SDS011;5278;42.656;23.374;2023-04-24T02:27:09;8.73;;;5.70;;
10461;SDS011;5278;42.656;23.374;2023-04-24T02:29:36;7.93;;;5.67;;
10461;SDS011;5278;42.656;23.374;2023-04-24T02:32:05;7.70;;;5.63;;
10461;SDS011;5278;42.656;23.374;2023-04-24T02:34:32;7.90;;;5.50;;
10461;SDS011;5278;42.656;23.374;2023-04-24T02:36:58;9.00;;;6.43;;
10461;SDS011;5278;42.656;23.374;2023-04-24T02:39:25;7.13;;;5.87;;
10461;SDS011;5278;42.656;23.374;2023-04-24T02:41:52;13.43;;;6.40;;
10461;SDS011;5278;42.656;23.374;2023-04-24T02:44:19;7.73;;;5.83;;
10461;SDS011;5278;42.656;23.374;2023-04-24T02:46:46;6.70;;;5.60;;
10461;SDS011;5278;42.656;23.374;2023-04-24T02:49:15;6.80;;;5.63;;
10461;SDS011;5278;42.656;23.374;2023-04-24T02:51:42;8.30;;;6.13;;
10461;SDS011;5278;42.656;23.374;2023-04-24T02:54:08;6.23;;;5.63;;
10461;SDS011;5278;42.656;23.374;2023-04-24T02:56:36;8.63;;;5.97;;
10461;SDS011;5278;42.656;23.374;2023-04-24T02:59:03;7.33;;;5.80;;
10461;SDS011;5278;42.656;23.374;2023-04-24T03:01:29;7.70;;;5.80;;
10461;SDS011;5278;42.656;23.374;2023-04-24T03:03:56;7.23;;;5.53;;
10461;SDS011;5278;42.656;23.374;2023-04-24T03:06:25;9.80;;;6.80;;
10461;SDS011;5278;42.656;23.374;2023-04-24T03:08:53;8.50;;;5.87;;
10461;SDS011;5278;42.656;23.374;2023-04-24T03:11:20;8.33;;;7.17;;
10461;SDS011;5278;42.656;23.374;2023-04-24T03:13:47;9.87;;;6.93;;
10461;SDS011;5278;42.656;23.374;2023-04-24T03:16:13;7.70;;;6.60;;
10461;SDS011;5278;42.656;23.374;2023-04-24T03:18:40;7.20;;;6.07;;
10461;SDS011;5278;42.656;23.374;2023-04-24T03:21:07;9.60;;;6.23;;
10461;SDS011;5278;42.656;23.374;2023-04-24T03:23:36;10.23;;;7.03;;
10461;SDS011;5278;42.656;23.374;2023-04-24T03:26:03;11.03;;;7.03;;
10461;SDS011;5278;42.656;23.374;2023-04-24T03:28:30;11.10;;;6.00;;
10461;SDS011;5278;42.656;23.374;2023-04-24T03:30:57;10.23;;;6.47;;
10461;SDS011;5278;42.656;23.374;2023-04-24T03:33:24;7.83;;;6.77;;
10461;SDS011;5278;42.656;23.374;2023-04-24T03:35:51;7.67;;;6.87;;
10461;SDS011;5278;42.656;23.374;2023-04-24T03:38:17;8.30;;;6.90;;
10461;SDS011;5278;42.656;23.374;2023-04-24T03:40:46;13.70;;;8.97;;
10461;SDS011;5278;42.656;23.374;2023-04-24T03:43:13;8.67;;;7.17;;
10461;SDS011;5278;42.656;23.374;2023-04-24T03:45:40;12.53;;;7.60;;
10461;SDS011;5278;42.656;23.374;2023-04-24T03:48:06;13.63;;;9.53;;
10461;SDS011;5278;42.656;23.374;2023-04-24T03:50:33;9.20;;;7.57;;
10461;SDS011;5278;42.656;23.374;2023-04-24T03:53:00;9.03;;;6.67;;
10461;SDS011;5278;42.656;23.374;2023-04-24T03:55:27;7.77;;;6.97;;
10461;SDS011;5278;42.656;23.374;2023-04-24T03:57:56;8.23;;;6.90;;
10461;SDS011;5278;42.656;23.374;2023-04-24T04:00:23;7.80;;;6.27;;
10461;SDS011;5278;42.656;23.374;2023-04-24T04:02:51;8.67;;;6.80;;
10461;SDS011;5278;42.656;23.374;2023-04-24T04:05:18;11.03;;;6.83;;
10461;SDS011;5278;42.656;23.374;2023-04-24T04:07:44;8.50;;;6.97;;
10461;SDS011;5278;42.656;23.374;2023-04-24T04:10:11;8.70;;;6.90;;
10461;SDS011;5278;42.656;23.374;2023-04-24T04:12:38;8.53;;;6.37;;
10461;SDS011;5278;42.656;23.374;2023-04-24T04:15:07;10.17;;;7.30;;
10461;SDS011;5278;42.656;23.374;2023-04-24T04:17:34;9.50;;;6.60;;
10461;SDS011;5278;42.656;23.374;2023-04-24T04:20:01;8.07;;;6.13;;
10461;SDS011;5278;42.656;23.374;2023-04-24T04:22:32;7.70;;;6.50;;
10461;SDS011;5278;42.656;23.374;2023-04-24T04:24:59;8.13;;;7.10;;
10461;SDS011;5278;42.656;23.374;2023-04-24T04:27:26;9.60;;;7.17;;
10461;SDS011;5278;42.656;23.374;2023-04-24T04:29:53;7.57;;;6.77;;
10461;SDS011;5278;42.656;23.374;2023-04-24T04:32:23;8.90;;;7.27;;
10461;SDS011;5278;42.656;23.374;2023-04-24T04:34:49;8.80;;;6.33;;
10461;SDS011;5278;42.656;23.374;2023-04-24T04:37:18;9.83;;;6.87;;
10461;SDS011;5278;42.656;23.374;2023-04-24T04:39:45;10.70;;;7.03;;
10461;SDS011;5278;42.656;23.374;2023-04-24T04:42:12;9.13;;;6.20;;
10461;SDS011;5278;42.656;23.374;2023-04-24T04:44:40;10.77;;;5.53;;
10461;SDS011;5278;42.656;23.374;2023-04-24T04:47:07;13.93;;;5.80;;
10461;SDS011;5278;42.656;23.374;2023-04-24T04:49:37;10.90;;;6.80;;
10461;SDS011;5278;42.656;23.374;2023-04-24T04:52:04;8.93;;;6.53;;
10461;SDS011;5278;42.656;23.374;2023-04-24T04:54:31;7.10;;;5.80;;
10461;SDS011;5278;42.656;23.374;2023-04-24T04:56:58;8.97;;;5.60;;
10461;SDS011;5278;42.656;23.374;2023-04-24T04:59:25;7.13;;;5.37;;
10461;SDS011;5278;42.656;23.374;2023-04-24T05:01:52;8.43;;;5.73;;
10461;SDS011;5278;42.656;23.374;2023-04-24T05:04:19;8.80;;;5.20;;
10461;SDS011;5278;42.656;23.374;2023-04-24T05:06:47;5.63;;;5.13;;
10461;SDS011;5278;42.656;23.374;2023-04-24T05:09:16;8.40;;;5.57;;
10461;SDS011;5278;42.656;23.374;2023-04-24T05:11:43;6.60;;;5.20;;
10461;SDS011;5278;42.656;23.374;2023-04-24T05:14:09;8.17;;;5.20;;
10461;SDS011;5278;42.656;23.374;2023-04-24T05:16:37;8.73;;;5.53;;
10461;SDS011;5278;42.656;23.374;2023-04-24T05:19:04;10.60;;;5.87;;
10461;SDS011;5278;42.656;23.374;2023-04-24T05:21:31;5.97;;;5.10;;
10461;SDS011;5278;42.656;23.374;2023-04-24T05:23:59;8.30;;;4.93;;
10461;SDS011;5278;42.656;23.374;2023-04-24T05:26:26;7.23;;;5.23;;
10461;SDS011;5278;42.656;23.374;2023-04-24T05:28:53;9.33;;;5.47;;
10461;SDS011;5278;42.656;23.374;2023-04-24T05:31:20;6.57;;;5.07;;
10461;SDS011;5278;42.656;23.374;2023-04-24T05:33:47;8.07;;;5.20;;
10461;SDS011;5278;42.656;23.374;2023-04-24T05:36:14;7.00;;;4.80;;
10461;SDS011;5278;42.656;23.374;2023-04-24T05:38:41;13.17;;;6.63;;
10461;SDS011;5278;42.656;23.374;2023-04-24T05:41:09;10.33;;;5.33;;
10461;SDS011;5278;42.656;23.374;2023-04-24T05:43:36;6.57;;;5.83;;
10461;SDS011;5278;42.656;23.374;2023-04-24T05:46:03;6.93;;;5.10;;
10461;SDS011;5278;42.656;23.374;2023-04-24T05:48:30;15.50;;;6.30;;
10461;SDS011;5278;42.656;23.374;2023-04-24T05:50:56;11.40;;;6.57;;
10461;SDS011;5278;42.656;23.374;2023-04-24T05:53:23;6.90;;;5.57;;
10461;SDS011;5278;42.656;23.374;2023-04-24T05:55:50;13.30;;;6.90;;
10461;SDS011;5278;42.656;23.374;2023-04-24T05:58:18;6.73;;;5.83;;
10461;SDS011;5278;42.656;23.374;2023-04-24T06:00:45;10.33;;;5.70;;
10461;SDS011;5278;42.656;23.374;2023-04-24T06:03:13;7.67;;;5.47;;
10461;SDS011;5278;42.656;23.374;2023-04-24T06:05:39;7.87;;;5.83;;
10461;SDS011;5278;42.656;23.374;2023-04-24T06:08:06;10.70;;;5.73;;
10461;SDS011;5278;42.656;23.374;2023-04-24T06:10:33;10.40;;;5.63;;
10461;SDS011;5278;42.656;23.374;2023-04-24T06:13:00;9.77;;;6.37;;
10461;SDS011;5278;42.656;23.374;2023-04-24T06:15:29;8.50;;;5.77;;
10461;SDS011;5278;42.656;23.374;2023-04-24T06:17:56;11.17;;;6.87;;
10461;SDS011;5278;42.656;23.374;2023-04-24T06:20:23;8.13;;;6.70;;
10461;SDS011;5278;42.656;23.374;2023-04-24T06:22:50;8.00;;;6.13;;
10461;SDS011;5278;42.656;23.374;2023-04-24T06:25:17;15.83;;;7.10;;
10461;SDS011;5278;42.656;23.374;2023-04-24T06:27:44;9.33;;;7.30;;
10461;SDS011;5278;42.656;23.374;2023-04-24T06:30:11;7.13;;;5.93;;
10461;SDS011;5278;42.656;23.374;2023-04-24T06:32:40;9.43;;;6.53;;
10461;SDS011;5278;42.656;23.374;2023-04-24T06:35:07;8.03;;;7.00;;
10461;SDS011;5278;42.656;23.374;2023-04-24T06:37:35;7.87;;;6.37;;
10461;SDS011;5278;42.656;23.374;2023-04-24T06:40:02;9.30;;;6.07;;
10461;SDS011;5278;42.656;23.374;2023-04-24T06:42:29;9.03;;;6.97;;
10461;SDS011;5278;42.656;23.374;2023-04-24T06:44:56;7.33;;;5.57;;
10461;SDS011;5278;42.656;23.374;2023-04-24T06:47:23;14.57;;;7.70;;
10461;SDS011;5278;42.656;23.374;2023-04-24T06:49:51;11.57;;;7.23;;
10461;SDS011;5278;42.656;23.374;2023-04-24T06:52:18;7.93;;;6.87;;
10461;SDS011;5278;42.656;23.374;2023-04-24T06:54:45;7.20;;;6.37;;
10461;SDS011;5278;42.656;23.374;2023-04-24T06:57:12;7.83;;;6.17;;
10461;SDS011;5278;42.656;23.374;2023-04-24T06:59:39;9.90;;;6.23;;
10461;SDS011;5278;42.656;23.374;2023-04-24T07:02:06;9.10;;;6.40;;
10461;SDS011;5278;42.656;23.374;2023-04-24T07:04:32;8.43;;;5.97;;
10461;SDS011;5278;42.656;23.374;2023-04-24T07:07:02;9.60;;;6.00;;
10461;SDS011;5278;42.656;23.374;2023-04-24T07:09:29;8.00;;;5.47;;
10461;SDS011;5278;42.656;23.374;2023-04-24T07:11:57;6.70;;;6.00;;
10461;SDS011;5278;42.656;23.374;2023-04-24T07:14:23;6.20;;;5.60;;
10461;SDS011;5278;42.656;23.374;2023-04-24T07:16:50;8.43;;;6.07;;
10461;SDS011;5278;42.656;23.374;2023-04-24T07:19:17;10.07;;;7.93;;
10461;SDS011;5278;42.656;23.374;2023-04-24T07:21:44;20.37;;;12.77;;
10461;SDS011;5278;42.656;23.374;2023-04-24T07:24:12;10.13;;;7.07;;
10461;SDS011;5278;42.656;23.374;2023-04-24T07:26:39;7.60;;;6.53;;
10461;SDS011;5278;42.656;23.374;2023-04-24T07:29:06;9.90;;;6.70;;
10461;SDS011;5278;42.656;23.374;2023-04-24T07:31:33;8.93;;;6.40;;
10461;SDS011;5278;42.656;23.374;2023-04-24T07:34:00;9.33;;;6.00;;
10461;SDS011;5278;42.656;23.374;2023-04-24T07:36:27;11.17;;;7.67;;
10461;SDS011;5278;42.656;23.374;2023-04-24T07:38:54;9.90;;;6.93;;
10461;SDS011;5278;42.656;23.374;2023-04-24T07:41:23;8.37;;;7.13;;
10461;SDS011;5278;42.656;23.374;2023-04-24T07:43:50;11.63;;;7.47;;
10461;SDS011;5278;42.656;23.374;2023-04-24T07:46:17;12.80;;;8.07;;
10461;SDS011;5278;42.656;23.374;2023-04-24T07:48:44;8.73;;;6.13;;
10461;SDS011;5278;42.656;23.374;2023-04-24T07:51:13;7.10;;;6.40;;
10461;SDS011;5278;42.656;23.374;2023-04-24T07:53:40;9.60;;;6.23;;
10461;SDS011;5278;42.656;23.374;2023-04-24T07:56:07;9.23;;;7.20;;
10461;SDS011;5278;42.656;23.374;2023-04-24T07:58:35;7.33;;;6.30;;
10461;SDS011;5278;42.656;23.374;2023-04-24T08:01:02;8.07;;;7.23;;
10461;SDS011;5278;42.656;23.374;2023-04-24T08:03:29;12.00;;;9.50;;
10461;SDS011;5278;42.656;23.374;2023-04-24T08:05:56;10.00;;;6.83;;
10461;SDS011;5278;42.656;23.374;2023-04-24T08:08:23;9.50;;;6.27;;
10461;SDS011;5278;42.656;23.374;2023-04-24T08:10:50;12.33;;;8.20;;
10461;SDS011;5278;42.656;23.374;2023-04-24T08:13:16;10.27;;;8.10;;
10461;SDS011;5278;42.656;23.374;2023-04-24T08:15:45;7.43;;;6.60;;
10461;SDS011;5278;42.656;23.374;2023-04-24T08:18:12;11.70;;;7.57;;
10461;SDS011;5278;42.656;23.374;2023-04-24T08:20:40;7.03;;;5.67;;
10461;SDS011;5278;42.656;23.374;2023-04-24T08:23:07;9.27;;;7.10;;
10461;SDS011;5278;42.656;23.374;2023-04-24T08:25:34;10.30;;;6.07;;
10461;SDS011;5278;42.656;23.374;2023-04-24T08:28:01;10.33;;;8.70;;
10461;SDS011;5278;42.656;23.374;2023-04-24T08:30:29;8.03;;;6.47;;
10461;SDS011;5278;42.656;23.374;2023-04-24T08:32:57;8.57;;;6.63;;
10461;SDS011;5278;42.656;23.374;2023-04-24T08:35:24;7.75;;;6.00;;
10461;SDS011;5278;42.656;23.374;2023-04-24T08:37:51;6.50;;;5.20;;
10461;SDS011;5278;42.656;23.374;2023-04-24T08:40:18;6.78;;;5.38;;
10461;SDS011;5278;42.656;23.374;2023-04-24T08:42:53;6.07;;;5.47;;
10461;SDS011;5278;42.656;23.374;2023-04-24T08:45:21;9.70;;;5.50;;
10461;SDS011;5278;42.656;23.374;2023-04-24T08:47:48;8.70;;;5.45;;
10461;SDS011;5278;42.656;23.374;2023-04-24T08:50:16;6.50;;;4.88;;
10461;SDS011;5278;42.656;23.374;2023-04-24T08:52:43;8.85;;;5.18;;
10461;SDS011;5278;42.656;23.374;2023-04-24T08:55:10;7.85;;;5.22;;
10461;SDS011;5278;42.656;23.374;2023-04-24T08:57:37;5.95;;;4.65;;
10461;SDS011;5278;42.656;23.374;2023-04-24T09:00:05;8.73;;;5.00;;
10461;SDS011;5278;42.656;23.374;2023-04-24T09:02:33;8.57;;;5.45;;
10461;SDS011;5278;42.656;23.374;2023-04-24T09:05:00;5.85;;;4.97;;
10461;SDS011;5278;42.656;23.374;2023-04-24T09:07:30;6.95;;;4.70;;
10461;SDS011;5278;42.656;23.374;2023-04-24T09:10:01;7.38;;;4.45;;
10461;SDS011;5278;42.656;23.374;2023-04-24T09:12:29;5.47;;;4.80;;
10461;SDS011;5278;42.656;23.374;2023-04-24T09:14:56;6.57;;;5.88;;
10461;SDS011;5278;42.656;23.374;2023-04-24T09:17:23;7.85;;;4.93;;
10461;SDS011;5278;42.656;23.374;2023-04-24T09:19:52;6.50;;;5.47;;
10461;SDS011;5278;42.656;23.374;2023-04-24T09:22:18;5.93;;;5.38;;
10461;SDS011;5278;42.656;23.374;2023-04-24T09:24:48;8.85;;;7.55;;
10461;SDS011;5278;42.656;23.374;2023-04-24T09:27:28;11.73;;;7.15;;
10461;SDS011;5278;42.656;23.374;2023-04-24T09:29:55;8.93;;;8.02;;
10461;SDS011;5278;42.656;23.374;2023-04-24T09:32:22;5.80;;;4.15;;
10461;SDS011;5278;42.656;23.374;2023-04-24T09:35:04;4.57;;;4.17;;
10461;SDS011;5278;42.656;23.374;2023-04-24T09:37:34;5.83;;;4.40;;
10461;SDS011;5278;42.656;23.374;2023-04-24T09:40:11;4.93;;;4.37;;
10461;SDS011;5278;42.656;23.374;2023-04-24T09:42:39;7.93;;;4.53;;
10461;SDS011;5278;42.656;23.374;2023-04-24T09:45:09;11.33;;;5.43;;
10461;SDS011;5278;42.656;23.374;2023-04-24T09:47:37;5.53;;;4.90;;
10461;SDS011;5278;42.656;23.374;2023-04-24T09:50:11;5.00;;;4.63;;
10461;SDS011;5278;42.656;23.374;2023-04-24T09:52:40;7.23;;;5.40;;
10461;SDS011;5278;42.656;23.374;2023-04-24T09:55:13;6.40;;;4.40;;
10461;SDS011;5278;42.656;23.374;2023-04-24T09:57:47;5.20;;;4.68;;
10461;SDS011;5278;42.656;23.374;2023-04-24T10:00:17;8.50;;;4.88;;
10461;SDS011;5278;42.656;23.374;2023-04-24T10:02:49;7.38;;;4.30;;
10461;SDS011;5278;42.656;23.374;2023-04-24T10:05:17;10.25;;;5.03;;
10461;SDS011;5278;42.656;23.374;2023-04-24T10:07:44;6.22;;;4.57;;
10461;SDS011;5278;42.656;23.374;2023-04-24T10:10:11;7.22;;;5.50;;
10461;SDS011;5278;42.656;23.374;2023-04-24T10:12:39;6.35;;;5.00;;
10461;SDS011;5278;42.656;23.374;2023-04-24T10:15:07;9.88;;;5.00;;
10461;SDS011;5278;42.656;23.374;2023-04-24T10:17:37;9.75;;;6.55;;
10461;SDS011;5278;42.656;23.374;2023-04-24T10:20:05;8.57;;;4.30;;
10461;SDS011;5278;42.656;23.374;2023-04-24T10:22:33;12.45;;;5.60;;
10461;SDS011;5278;42.656;23.374;2023-04-24T10:25:00;6.50;;;5.40;;
10461;SDS011;5278;42.656;23.374;2023-04-24T10:27:31;8.20;;;4.93;;
10461;SDS011;5278;42.656;23.374;2023-04-24T10:30:00;6.90;;;5.10;;
10461;SDS011;5278;42.656;23.374;2023-04-24T10:32:28;6.20;;;4.75;;
10461;SDS011;5278;42.656;23.374;2023-04-24T10:34:55;6.30;;;4.55;;
10461;SDS011;5278;42.656;23.374;2023-04-24T10:37:22;5.93;;;4.57;;
10461;SDS011;5278;42.656;23.374;2023-04-24T10:39:50;8.23;;;4.60;;
10461;SDS011;5278;42.656;23.374;2023-04-24T10:42:19;5.28;;;4.47;;
10461;SDS011;5278;42.656;23.374;2023-04-24T10:44:47;6.20;;;4.20;;
10461;SDS011;5278;42.656;23.374;2023-04-24T10:47:16;6.60;;;4.10;;
10461;SDS011;5278;42.656;23.374;2023-04-24T10:49:43;4.82;;;4.15;;
10461;SDS011;5278;42.656;23.374;2023-04-24T10:52:10;4.97;;;4.45;;
10461;SDS011;5278;42.656;23.374;2023-04-24T10:54:41;5.17;;;4.63;;
10461;SDS011;5278;42.656;23.374;2023-04-24T10:57:26;9.75;;;3.88;;
10461;SDS011;5278;42.656;23.374;2023-04-24T11:00:15;4.20;;;3.77;;
10461;SDS011;5278;42.656;23.374;2023-04-24T11:02:46;7.30;;;4.50;;
10461;SDS011;5278;42.656;23.374;2023-04-24T11:05:18;5.70;;;3.80;;
10461;SDS011;5278;42.656;23.374;2023-04-24T11:08:09;4.83;;;3.70;;
10461;SDS011;5278;42.656;23.374;2023-04-24T11:10:41;4.57;;;4.10;;
10461;SDS011;5278;42.656;23.374;2023-04-24T11:13:10;4.33;;;3.83;;
10461;SDS011;5278;42.656;23.374;2023-04-24T11:15:41;5.40;;;3.60;;
10461;SDS011;5278;42.656;23.374;2023-04-24T11:18:13;9.30;;;4.50;;
10461;SDS011;5278;42.656;23.374;2023-04-24T11:20:42;5.87;;;4.13;;
10461;SDS011;5278;42.656;23.374;2023-04-24T11:23:09;4.30;;;3.90;;
10461;SDS011;5278;42.656;23.374;2023-04-24T11:25:39;6.97;;;5.00;;
10461;SDS011;5278;42.656;23.374;2023-04-24T11:28:07;8.57;;;5.47;;
10461;SDS011;5278;42.656;23.374;2023-04-24T11:30:41;7.57;;;4.47;;
10461;SDS011;5278;42.656;23.374;2023-04-24T11:33:07;13.93;;;4.83;;
10461;SDS011;5278;42.656;23.374;2023-04-24T11:35:39;4.60;;;3.60;;
10461;SDS011;5278;42.656;23.374;2023-04-24T11:38:06;6.77;;;3.90;;
10461;SDS011;5278;42.656;23.374;2023-04-24T11:40:33;6.30;;;3.90;;
10461;SDS011;5278;42.656;23.374;2023-04-24T11:43:00;4.90;;;3.40;;
10461;SDS011;5278;42.656;23.374;2023-04-24T11:45:30;4.83;;;3.30;;
10461;SDS011;5278;42.656;23.374;2023-04-24T11:47:57;3.70;;;3.20;;
10461;SDS011;5278;42.656;23.374;2023-04-24T11:50:25;6.90;;;3.90;;
10461;SDS011;5278;42.656;23.374;2023-04-24T11:52:55;6.93;;;3.80;;
10461;SDS011;5278;42.656;23.374;2023-04-24T11:55:23;4.83;;;4.40;;
10461;SDS011;5278;42.656;23.374;2023-04-24T11:57:52;4.33;;;3.93;;
10461;SDS011;5278;42.656;23.374;2023-04-24T12:00:22;4.80;;;4.40;;
10461;SDS011;5278;42.656;23.374;2023-04-24T12:02:50;4.30;;;3.90;;
10461;SDS011;5278;42.656;23.374;2023-04-24T12:05:19;5.03;;;4.53;;
10461;SDS011;5278;42.656;23.374;2023-04-24T12:07:46;4.33;;;4.03;;
10461;SDS011;5278;42.656;23.374;2023-04-24T12:10:19;3.73;;;3.43;;
10461;SDS011;5278;42.656;23.374;2023-04-24T12:12:46;3.67;;;3.40;;
10461;SDS011;5278;42.656;23.374;2023-04-24T12:15:15;4.03;;;3.63;;
10461;SDS011;5278;42.656;23.374;2023-04-24T12:17:43;4.10;;;3.70;;
10461;SDS011;5278;42.656;23.374;2023-04-24T12:20:11;3.40;;;3.10;;
10461;SDS011;5278;42.656;23.374;2023-04-24T12:22:43;3.73;;;3.43;;
10461;SDS011;5278;42.656;23.374;2023-04-24T12:25:11;5.10;;;4.00;;
10461;SDS011;5278;42.656;23.374;2023-04-24T12:27:40;4.33;;;3.93;;
10461;SDS011;5278;42.656;23.374;2023-04-24T12:30:09;4.50;;;3.33;;
10461;SDS011;5278;42.656;23.374;2023-04-24T12:32:40;5.13;;;3.60;;
10461;SDS011;5278;42.656;23.374;2023-04-24T12:35:08;4.60;;;3.93;;
10461;SDS011;5278;42.656;23.374;2023-04-24T12:37:35;5.47;;;3.07;;
10461;SDS011;5278;42.656;23.374;2023-04-24T12:40:05;3.70;;;3.40;;
10461;SDS011;5278;42.656;23.374;2023-04-24T12:42:33;4.73;;;3.60;;
10461;SDS011;5278;42.656;23.374;2023-04-24T12:45:03;4.43;;;3.83;;
10461;SDS011;5278;42.656;23.374;2023-04-24T12:47:32;5.93;;;4.20;;
10461;SDS011;5278;42.656;23.374;2023-04-24T12:50:01;3.70;;;3.37;;
10461;SDS011;5278;42.656;23.374;2023-04-24T12:52:29;6.40;;;3.43;;
10461;SDS011;5278;42.656;23.374;2023-04-24T12:54:57;5.03;;;3.80;;
10461;SDS011;5278;42.656;23.374;2023-04-24T12:57:25;4.77;;;3.50;;
10461;SDS011;5278;42.656;23.374;2023-04-24T12:59:53;4.20;;;3.80;;
10461;SDS011;5278;42.656;23.374;2023-04-24T13:02:22;8.67;;;4.37;;
10461;SDS011;5278;42.656;23.374;2023-04-24T13:04:50;6.57;;;4.37;;
10461;SDS011;5278;42.656;23.374;2023-04-24T13:07:17;6.47;;;4.23;;
10461;SDS011;5278;42.656;23.374;2023-04-24T13:09:44;5.80;;;4.10;;
10461;SDS011;5278;42.656;23.374;2023-04-24T13:12:12;5.30;;;4.00;;
10461;SDS011;5278;42.656;23.374;2023-04-24T13:14:39;5.60;;;4.30;;
10461;SDS011;5278;42.656;23.374;2023-04-24T13:17:06;7.57;;;4.40;;
10461;SDS011;5278;42.656;23.374;2023-04-24T13:19:39;4.70;;;4.23;;
10461;SDS011;5278;42.656;23.374;2023-04-24T13:22:08;4.33;;;3.93;;
10461;SDS011;5278;42.656;23.374;2023-04-24T13:24:36;4.57;;;4.00;;
10461;SDS011;5278;42.656;23.374;2023-04-24T13:27:04;4.70;;;4.30;;
10461;SDS011;5278;42.656;23.374;2023-04-24T13:29:31;5.10;;;4.13;;
10461;SDS011;5278;42.656;23.374;2023-04-24T13:31:58;5.17;;;4.40;;
10461;SDS011;5278;42.656;23.374;2023-04-24T13:34:26;5.87;;;4.57;;
10461;SDS011;5278;42.656;23.374;2023-04-24T13:36:56;7.13;;;4.50;;
10461;SDS011;5278;42.656;23.374;2023-04-24T13:39:24;5.37;;;4.23;;
10461;SDS011;5278;42.656;23.374;2023-04-24T13:41:51;4.60;;;4.20;;
10461;SDS011;5278;42.656;23.374;2023-04-24T13:44:19;4.93;;;4.43;;
10461;SDS011;5278;42.656;23.374;2023-04-24T13:46:48;4.67;;;4.00;;
10461;SDS011;5278;42.656;23.374;2023-04-24T13:49:16;7.57;;;5.70;;
10461;SDS011;5278;42.656;23.374;2023-04-24T13:51:43;5.87;;;4.67;;
10461;SDS011;5278;42.656;23.374;2023-04-24T13:54:12;11.43;;;5.87;;
10461;SDS011;5278;42.656;23.374;2023-04-24T13:56:39;14.70;;;6.20;;
10461;SDS011;5278;42.656;23.374;2023-04-24T13:59:06;5.87;;;4.97;;
10461;SDS011;5278;42.656;23.374;2023-04-24T14:01:34;5.83;;;5.33;;
10461;SDS011;5278;42.656;23.374;2023-04-24T14:04:01;8.90;;;4.87;;
10461;SDS011;5278;42.656;23.374;2023-04-24T14:06:28;9.60;;;6.20;;
10461;SDS011;5278;42.656;23.374;2023-04-24T14:08:54;4.43;;;4.13;;
10461;SDS011;5278;42.656;23.374;2023-04-24T14:11:23;4.97;;;4.57;;
10461;SDS011;5278;42.656;23.374;2023-04-24T14:13:50;7.90;;;4.77;;
10461;SDS011;5278;42.656;23.374;2023-04-24T14:16:17;5.37;;;4.70;;
10461;SDS011;5278;42.656;23.374;2023-04-24T14:18:44;7.20;;;5.13;;
10461;SDS011;5278;42.656;23.374;2023-04-24T14:21:10;7.33;;;4.33;;
10461;SDS011;5278;42.656;23.374;2023-04-24T14:23:37;4.43;;;3.67;;
10461;SDS011;5278;42.656;23.374;2023-04-24T14:26:04;3.70;;;3.40;;
10461;SDS011;5278;42.656;23.374;2023-04-24T14:28:32;3.67;;;3.33;;
10461;SDS011;5278;42.656;23.374;2023-04-24T14:31:00;4.30;;;3.57;;
10461;SDS011;5278;42.656;23.374;2023-04-24T14:33:27;6.77;;;4.70;;
10461;SDS011;5278;42.656;23.374;2023-04-24T14:35:53;5.60;;;3.77;;
10461;SDS011;5278;42.656;23.374;2023-04-24T14:38:21;4.67;;;3.50;;
10461;SDS011;5278;42.656;23.374;2023-04-24T14:40:48;4.30;;;3.30;;
10461;SDS011;5278;42.656;23.374;2023-04-24T14:43:15;6.57;;;4.00;;
10461;SDS011;5278;42.656;23.374;2023-04-24T14:45:43;7.93;;;4.00;;
10461;SDS011;5278;42.656;23.374;2023-04-24T14:48:10;4.53;;;3.47;;
10461;SDS011;5278;42.656;23.374;2023-04-24T14:50:37;6.33;;;3.57;;